Time;durP1;ratioP1;P1;durP2;ratioP2;P2;SDS_P1;SDS_P2;PMS_P1;PMS_P2;Temp;Humidity;BMP_temperature;BMP_pressure;BME280_temperature;BME280_humidity;BME280_pressure;Samples;Min_cycle;Max_cycle;Signal;HPM_P1;HPM_P2
2023/06/18 00:00:39;;;;;;;24.25;21.67;;;19.90;99.90;;;;;;5080126;28;20204;-73
2023/06/18 00:03:28;;;;;;;24.58;22.00;;;20.00;99.90;;;;;;5081495;28;20192;-73
2023/06/18 00:06:18;;;;;;;24.02;21.67;;;19.90;99.90;;;;;;5089365;28;20198;-74
2023/06/18 00:09:07;;;;;;;23.60;21.40;;;19.90;99.90;;;;;;5088613;28;20200;-73
2023/06/18 00:11:55;;;;;;;24.73;22.27;;;19.90;99.90;;;;;;5082197;28;20191;-73
2023/06/18 00:14:44;;;;;;;25.13;22.67;;;19.90;99.90;;;;;;5076847;28;20225;-74
2023/06/18 00:17:33;;;;;;;26.08;23.25;;;19.90;99.90;;;;;;5075978;28;20219;-74
2023/06/18 00:20:22;;;;;;;25.10;22.67;;;19.80;99.90;;;;;;5070394;28;20662;-74
2023/06/18 00:23:13;;;;;;;25.80;23.13;;;19.80;99.90;;;;;;5072996;28;20282;-72
2023/06/18 00:26:01;;;;;;;25.83;23.33;;;19.80;99.90;;;;;;5079021;28;20192;-73
2023/06/18 00:28:50;;;;;;;26.45;23.75;;;19.70;99.90;;;;;;5089616;28;20200;-73
2023/06/18 00:31:39;;;;;;;26.42;23.73;;;19.80;99.90;;;;;;5080356;28;20252;-75
2023/06/18 00:34:32;;;;;;;29.00;23.77;;;19.80;99.90;;;;;;5066856;28;20195;-72
2023/06/18 00:37:21;;;;;;;26.90;24.05;;;19.80;99.90;;;;;;5073252;28;20298;-72
2023/06/18 00:40:13;;;;;;;25.75;23.15;;;19.80;99.90;;;;;;5072274;28;20188;-72
2023/06/18 00:43:03;;;;;;;25.90;23.40;;;19.80;99.90;;;;;;5075270;28;20226;-72
2023/06/18 00:45:53;;;;;;;26.60;23.98;;;19.80;99.90;;;;;;5075534;28;20196;-72
2023/06/18 00:48:41;;;;;;;25.58;22.88;;;19.80;99.90;;;;;;5097514;28;20528;-74
2023/06/18 00:51:31;;;;;;;24.48;21.90;;;19.70;99.90;;;;;;5073588;28;20196;-72
2023/06/18 00:54:20;;;;;;;27.23;22.63;;;19.70;99.90;;;;;;5088031;28;20361;-73
2023/06/18 00:57:13;;;;;;;24.30;21.70;;;19.80;99.90;;;;;;5092715;28;20276;-75
2023/06/18 01:00:04;;;;;;;24.73;22.30;;;19.70;99.90;;;;;;5073601;28;20200;-73
2023/06/18 01:02:55;;;;;;;24.90;22.33;;;19.70;99.90;;;;;;5086703;28;20901;-73
2023/06/18 01:05:46;;;;;;;25.05;22.35;;;19.60;99.90;;;;;;5079770;28;20211;-74
2023/06/18 01:08:36;;;;;;;24.05;21.75;;;19.70;99.90;;;;;;5067797;28;20192;-73
2023/06/18 01:11:25;;;;;;;24.98;22.15;;;19.70;99.90;;;;;;5077332;28;20187;-74
2023/06/18 01:14:17;;;;;;;25.20;22.50;;;19.80;99.90;;;;;;5083127;28;20832;-73
2023/06/18 01:17:08;;;;;;;23.50;21.20;;;19.70;99.90;;;;;;5072154;28;20191;-74
2023/06/18 01:20:07;;;;;;;24.15;21.80;;;19.70;99.90;;;;;;5093759;28;20557;-73
2023/06/18 01:23:01;;;;;;;23.58;21.08;;;19.70;99.90;;;;;;5083756;28;20272;-73
2023/06/18 01:25:52;;;;;;;23.27;20.92;;;19.70;99.90;;;;;;5092529;28;20218;-74
2023/06/18 01:28:42;;;;;;;24.17;21.77;;;19.70;99.90;;;;;;5091144;28;20214;-73
2023/06/18 01:31:36;;;;;;;23.88;21.48;;;19.60;99.90;;;;;;5067427;28;20206;-73
2023/06/18 01:34:27;;;;;;;23.80;21.42;;;19.60;99.90;;;;;;5071235;28;20184;-74
2023/06/18 01:37:31;;;;;;;23.17;20.10;;;19.70;99.90;;;;;;5073924;28;20679;-73
2023/06/18 01:40:29;;;;;;;22.95;20.50;;;19.70;99.90;;;;;;5067392;28;20192;-72
2023/06/18 01:43:27;;;;;;;23.05;20.75;;;19.70;99.90;;;;;;5071968;28;20675;-73
2023/06/18 01:46:20;;;;;;;25.35;20.42;;;19.70;99.90;;;;;;5074924;28;20267;-72
2023/06/18 01:49:11;;;;;;;22.40;20.08;;;19.60;99.90;;;;;;5064460;28;20706;-72
2023/06/18 01:52:04;;;;;;;22.65;20.23;;;19.70;99.90;;;;;;5069760;28;20187;-72
2023/06/18 01:54:55;;;;;;;22.50;20.20;;;19.70;99.90;;;;;;5075485;28;20196;-73
2023/06/18 01:57:44;;;;;;;22.63;20.23;;;19.60;99.90;;;;;;5080758;28;20195;-71
2023/06/18 02:00:33;;;;;;;20.85;18.65;;;19.50;99.90;;;;;;5067340;28;20210;-71
2023/06/18 02:03:22;;;;;;;20.42;18.40;;;19.50;99.90;;;;;;5077287;28;20554;-72
2023/06/18 02:06:13;;;;;;;21.35;19.15;;;19.50;99.90;;;;;;5076154;28;20207;-73
2023/06/18 02:09:03;;;;;;;20.00;18.00;;;19.50;99.90;;;;;;5083422;28;20731;-73
2023/06/18 02:11:52;;;;;;;22.13;18.40;;;19.60;99.90;;;;;;5094605;28;20471;-73
2023/06/18 02:14:41;;;;;;;20.45;18.35;;;19.70;99.90;;;;;;5078200;28;20281;-73
2023/06/18 02:17:29;;;;;;;20.23;18.17;;;19.70;99.90;;;;;;5092362;28;20372;-73
2023/06/18 02:20:18;;;;;;;19.75;17.85;;;19.70;99.90;;;;;;5066675;28;20242;-72
2023/06/18 02:23:09;;;;;;;19.65;17.65;;;19.70;99.90;;;;;;5084761;28;20686;-72
2023/06/18 02:25:59;;;;;;;19.63;17.63;;;19.70;99.90;;;;;;5087013;28;20272;-73
2023/06/18 02:28:47;;;;;;;18.42;16.63;;;19.70;99.90;;;;;;5080018;28;20195;-72
2023/06/18 02:31:36;;;;;;;19.25;16.92;;;19.70;99.90;;;;;;5078496;28;20204;-73
2023/06/18 02:34:27;;;;;;;18.73;16.48;;;19.60;99.90;;;;;;5083525;28;20654;-72
2023/06/18 02:37:16;;;;;;;17.90;16.10;;;19.70;99.90;;;;;;5087070;28;20197;-72
2023/06/18 02:40:08;;;;;;;18.48;16.58;;;19.60;99.90;;;;;;5082285;28;20188;-72
2023/06/18 02:42:57;;;;;;;18.10;16.30;;;19.70;99.90;;;;;;5062348;28;20300;-74
2023/06/18 02:45:45;;;;;;;18.05;16.25;;;19.70;99.90;;;;;;5085095;28;20218;-73
2023/06/18 02:48:34;;;;;;;19.17;17.17;;;19.70;99.90;;;;;;5060281;28;20299;-72
2023/06/18 02:51:23;;;;;;;18.17;16.38;;;19.70;99.90;;;;;;5091148;28;20277;-74
2023/06/18 02:54:12;;;;;;;18.00;16.20;;;19.70;99.90;;;;;;5080787;28;20687;-73
2023/06/18 02:57:02;;;;;;;17.98;16.02;;;19.70;99.90;;;;;;5078301;28;20182;-73
2023/06/18 02:59:51;;;;;;;17.70;15.80;;;19.60;99.90;;;;;;5069395;28;20195;-73
2023/06/18 03:02:41;;;;;;;17.55;15.75;;;19.60;99.90;;;;;;5082530;28;20226;-74
2023/06/18 03:05:35;;;;;;;18.20;16.30;;;19.70;99.90;;;;;;5073722;28;20717;-73
2023/06/18 03:08:24;;;;;;;17.73;15.88;;;19.70;99.90;;;;;;5070729;28;20281;-74
2023/06/18 03:11:15;;;;;;;19.52;16.50;;;19.70;99.90;;;;;;5064498;28;20195;-74
2023/06/18 03:14:06;;;;;;;18.73;16.25;;;19.70;99.90;;;;;;5072091;28;20555;-73
2023/06/18 03:16:56;;;;;;;18.40;15.70;;;19.60;99.90;;;;;;5069649;28;20192;-73
2023/06/18 03:19:46;;;;;;;19.70;17.80;;;19.70;99.90;;;;;;5077278;28;20196;-73
2023/06/18 03:22:34;;;;;;;19.65;16.75;;;19.70;99.90;;;;;;5094036;28;20319;-74
2023/06/18 03:25:23;;;;;;;18.92;17.00;;;19.70;99.90;;;;;;5063194;28;20194;-73
2023/06/18 03:28:12;;;;;;;18.98;17.02;;;19.70;99.90;;;;;;5063050;28;20261;-73
2023/06/18 03:31:04;;;;;;;18.42;16.58;;;19.70;99.90;;;;;;5074559;28;20196;-73
2023/06/18 03:33:53;;;;;;;17.90;15.95;;;19.80;99.90;;;;;;5067772;28;20702;-73
2023/06/18 03:36:43;;;;;;;18.35;16.48;;;19.90;99.90;;;;;;5078326;28;20188;-73
2023/06/18 03:39:32;;;;;;;18.15;16.40;;;19.90;99.90;;;;;;5064446;28;20210;-74
2023/06/18 03:42:22;;;;;;;18.15;16.27;;;19.90;99.90;;;;;;5058406;28;21130;-74
2023/06/18 03:45:12;;;;;;;17.92;16.05;;;20.00;99.90;;;;;;5074167;28;20286;-73
2023/06/18 03:48:04;;;;;;;19.83;17.80;;;19.90;99.90;;;;;;5063779;28;20679;-72
2023/06/18 03:51:01;;;;;;;19.80;17.73;;;19.90;99.90;;;;;;5077950;28;20215;-72
2023/06/18 03:53:54;;;;;;;21.17;18.35;;;20.00;99.90;;;;;;5083820;28;20282;-72
2023/06/18 03:56:42;;;;;;;21.15;18.95;;;19.90;99.90;;;;;;5082819;28;20192;-72
2023/06/18 03:59:33;;;;;;;20.63;18.52;;;19.90;99.90;;;;;;5069167;28;20305;-72
2023/06/18 04:02:22;;;;;;;20.23;18.08;;;20.00;99.90;;;;;;5079706;28;20211;-72
2023/06/18 04:05:13;;;;;;;20.60;18.45;;;20.10;99.90;;;;;;5063088;28;20210;-72
2023/06/18 04:08:02;;;;;;;20.40;18.30;;;20.10;99.90;;;;;;5087993;28;20200;-72
2023/06/18 04:10:51;;;;;;;19.80;17.77;;;20.10;99.90;;;;;;5079218;28;20278;-72
2023/06/18 04:13:39;;;;;;;19.92;17.13;;;20.10;99.90;;;;;;5078907;28;20188;-74
2023/06/18 04:16:29;;;;;;;21.70;18.48;;;20.10;99.90;;;;;;5073216;28;20282;-73
2023/06/18 04:19:21;;;;;;;21.77;18.60;;;20.10;99.90;;;;;;5079624;28;20200;-72
2023/06/18 04:22:11;;;;;;;21.80;18.88;;;20.20;99.90;;;;;;5066120;28;20245;-71
2023/06/18 04:25:03;;;;;;;20.85;18.75;;;20.10;99.90;;;;;;5063823;28;20593;-72
2023/06/18 04:27:52;;;;;;;23.63;21.08;;;20.10;99.90;;;;;;5084904;28;20202;-72
2023/06/18 04:30:41;;;;;;;23.45;19.75;;;20.10;99.90;;;;;;5070497;28;20564;-71
2023/06/18 04:33:30;;;;;;;23.92;20.85;;;20.10;99.90;;;;;;5067759;28;20243;-73
2023/06/18 04:36:19;;;;;;;23.58;21.02;;;20.20;99.90;;;;;;5072665;28;20202;-72
2023/06/18 04:39:13;;;;;;;23.23;20.85;;;20.20;99.90;;;;;;5062028;28;20198;-73
2023/06/18 04:42:02;;;;;;;23.40;20.63;;;20.20;99.90;;;;;;5071438;28;20200;-73
2023/06/18 04:44:51;;;;;;;23.60;20.52;;;20.30;99.90;;;;;;5083749;28;20230;-73
2023/06/18 04:47:40;;;;;;;23.42;20.83;;;20.30;99.90;;;;;;5072886;28;20184;-73
2023/06/18 04:50:29;;;;;;;24.25;21.02;;;20.30;99.90;;;;;;5072526;28;20199;-74
2023/06/18 04:53:18;;;;;;;24.10;21.60;;;20.30;99.90;;;;;;5086229;28;20203;-73
2023/06/18 04:56:10;;;;;;;24.55;21.90;;;20.20;99.90;;;;;;5065612;28;20272;-74
2023/06/18 04:59:02;;;;;;;25.48;21.95;;;20.10;99.90;;;;;;5072119;28;20195;-75
2023/06/18 05:01:51;;;;;;;24.88;22.42;;;20.10;99.90;;;;;;5079523;28;20202;-72
2023/06/18 05:04:40;;;;;;;26.13;22.60;;;20.10;99.90;;;;;;5092330;28;20211;-73
2023/06/18 05:07:29;;;;;;;25.67;22.98;;;20.10;99.90;;;;;;5090468;28;20207;-74
2023/06/18 05:10:18;;;;;;;28.10;24.00;;;20.00;99.90;;;;;;5068604;28;20220;-73
2023/06/18 05:13:09;;;;;;;25.20;22.55;;;20.00;99.90;;;;;;5073104;28;20240;-73
2023/06/18 05:15:58;;;;;;;26.48;23.75;;;20.10;99.90;;;;;;5095032;28;20211;-73
2023/06/18 05:18:47;;;;;;;25.63;23.02;;;20.20;99.90;;;;;;5066610;28;20211;-73
2023/06/18 05:21:36;;;;;;;26.65;24.05;;;20.20;99.90;;;;;;5076174;28;20204;-73
2023/06/18 05:24:25;;;;;;;25.38;22.75;;;20.10;99.90;;;;;;5072061;28;20276;-73
2023/06/18 05:27:13;;;;;;;26.02;23.27;;;20.20;99.90;;;;;;5083668;28;20218;-73
2023/06/18 05:30:06;;;;;;;26.90;23.17;;;20.40;99.90;;;;;;5076946;28;20267;-73
2023/06/18 05:32:55;;;;;;;26.25;22.25;;;20.50;99.90;;;;;;5082523;28;20235;-73
2023/06/18 05:35:45;;;;;;;24.08;21.77;;;20.50;99.90;;;;;;5089468;28;20200;-73
2023/06/18 05:38:34;;;;;;;25.92;23.33;;;20.60;99.90;;;;;;5087569;28;20188;-73
2023/06/18 05:41:23;;;;;;;26.30;23.70;;;20.60;99.90;;;;;;5087454;28;20699;-74
2023/06/18 05:44:12;;;;;;;28.00;23.58;;;20.70;99.90;;;;;;5051440;28;20346;-73
2023/06/18 05:47:03;;;;;;;26.98;24.08;;;20.80;99.90;;;;;;5086371;28;20715;-72
2023/06/18 05:49:53;;;;;;;26.77;24.05;;;20.90;99.90;;;;;;5071335;28;20207;-73
2023/06/18 05:52:41;;;;;;;27.10;24.23;;;20.80;99.90;;;;;;5073304;28;20214;-73
2023/06/18 05:55:31;;;;;;;25.13;22.58;;;20.70;99.90;;;;;;5077032;28;20830;-73
2023/06/18 05:58:20;;;;;;;24.83;22.30;;;20.80;99.90;;;;;;5065429;28;20200;-73
2023/06/18 06:01:12;;;;;;;25.67;23.02;;;20.80;99.90;;;;;;5064194;28;20207;-73
2023/06/18 06:04:03;;;;;;;24.98;22.30;;;20.90;99.90;;;;;;5092560;28;20208;-73
2023/06/18 06:06:52;;;;;;;27.38;23.90;;;21.00;99.90;;;;;;5073929;28;20268;-73
2023/06/18 06:09:41;;;;;;;24.75;22.25;;;21.00;99.90;;;;;;5082752;28;20798;-73
2023/06/18 06:12:31;;;;;;;24.15;21.77;;;21.00;99.90;;;;;;5067755;28;20206;-74
2023/06/18 06:15:20;;;;;;;25.60;23.02;;;21.20;99.90;;;;;;5080334;28;20190;-73
2023/06/18 06:18:09;;;;;;;26.38;22.55;;;21.20;99.90;;;;;;5080305;28;20205;-74
2023/06/18 06:20:59;;;;;;;24.63;22.00;;;21.20;99.90;;;;;;5092454;28;20199;-72
2023/06/18 06:23:48;;;;;;;26.27;22.30;;;21.30;99.90;;;;;;5079565;28;20215;-73
2023/06/18 06:26:37;;;;;;;25.30;22.65;;;21.40;99.90;;;;;;5096850;28;20240;-73
2023/06/18 06:29:26;;;;;;;23.77;21.42;;;21.40;99.90;;;;;;5069913;28;20270;-73
2023/06/18 06:32:15;;;;;;;24.73;22.27;;;21.50;99.90;;;;;;5049338;28;20753;-73
2023/06/18 06:35:06;;;;;;;24.30;21.73;;;21.50;99.90;;;;;;5070403;28;20200;-73
2023/06/18 06:37:57;;;;;;;25.38;22.77;;;21.50;99.90;;;;;;5089062;28;20204;-72
2023/06/18 06:40:46;;;;;;;24.13;21.73;;;21.50;99.90;;;;;;5072199;28;20239;-72
2023/06/18 06:43:35;;;;;;;24.33;21.83;;;21.40;99.90;;;;;;5074678;28;20694;-73
2023/06/18 06:46:50;;;;;;;24.52;21.88;;;21.40;99.90;;;;;;5083922;28;20208;-73
2023/06/18 06:49:59;;;;;;;23.63;21.15;;;21.50;99.90;;;;;;5089080;28;20207;-72
2023/06/18 06:53:07;;;;;;;23.65;21.13;;;21.50;99.90;;;;;;5093177;28;20321;-73
2023/06/18 06:55:56;;;;;;;24.70;21.58;;;21.60;99.90;;;;;;5084923;28;20206;-72
2023/06/18 06:58:45;;;;;;;25.23;22.55;;;21.60;99.90;;;;;;5079896;28;20240;-73
2023/06/18 07:01:35;;;;;;;24.50;22.10;;;21.70;99.90;;;;;;5089084;28;20199;-72
2023/06/18 07:04:24;;;;;;;25.15;22.50;;;21.70;99.90;;;;;;5067174;28;20238;-72
2023/06/18 07:07:14;;;;;;;24.65;22.17;;;21.80;99.90;;;;;;5081590;28;20200;-74
2023/06/18 07:10:05;;;;;;;25.63;22.58;;;21.80;99.90;;;;;;5085244;28;20477;-73
2023/06/18 07:12:54;;;;;;;24.48;21.88;;;21.80;99.90;;;;;;5086619;28;20192;-73
2023/06/18 07:15:43;;;;;;;24.38;21.80;;;21.90;99.90;;;;;;5093000;28;20196;-72
2023/06/18 07:18:32;;;;;;;23.67;21.23;;;21.90;99.90;;;;;;5083642;28;20278;-73
2023/06/18 07:21:20;;;;;;;23.17;20.65;;;22.00;99.90;;;;;;5069944;28;20199;-73
2023/06/18 07:24:09;;;;;;;23.60;21.20;;;22.20;99.90;;;;;;5075337;28;20214;-73
2023/06/18 07:26:59;;;;;;;26.02;22.50;;;22.30;99.90;;;;;;5082856;28;20683;-71
2023/06/18 07:29:48;;;;;;;27.13;22.75;;;22.40;99.90;;;;;;5090789;28;20578;-72
2023/06/18 07:32:37;;;;;;;23.50;21.10;;;22.40;99.90;;;;;;5079512;28;20222;-72
2023/06/18 07:35:26;;;;;;;23.30;20.77;;;22.60;99.90;;;;;;5063277;28;20558;-74
2023/06/18 07:38:14;;;;;;;18.35;16.55;;;22.60;99.90;;;;;;5050547;28;20189;-72
2023/06/18 07:41:03;;;;;;;18.75;16.77;;;22.60;99.90;;;;;;5082455;28;20226;-73
2023/06/18 07:43:53;;;;;;;18.40;16.65;;;22.60;99.90;;;;;;5077460;28;20266;-73
2023/06/18 07:46:43;;;;;;;16.83;15.13;;;22.70;99.90;;;;;;5079105;28;20187;-72
2023/06/18 07:49:32;;;;;;;15.68;14.07;;;22.90;99.90;;;;;;5072834;28;20879;-72
2023/06/18 07:52:21;;;;;;;16.08;14.38;;;23.20;99.90;;;;;;5083292;28;20202;-73
2023/06/18 07:55:10;;;;;;;14.57;13.13;;;23.40;99.90;;;;;;5068945;28;20199;-72
2023/06/18 07:57:59;;;;;;;15.50;14.00;;;23.40;99.90;;;;;;5090754;28;20203;-73
2023/06/18 08:00:49;;;;;;;15.40;13.95;;;23.60;99.90;;;;;;5080986;28;20242;-73
2023/06/18 08:03:38;;;;;;;16.73;15.13;;;23.80;99.90;;;;;;5077337;28;20218;-74
2023/06/18 08:06:27;;;;;;;17.50;15.63;;;23.80;99.90;;;;;;5082760;28;20192;-73
2023/06/18 08:09:16;;;;;;;16.40;14.70;;;24.10;99.90;;;;;;5070759;28;20187;-73
2023/06/18 08:12:06;;;;;;;16.38;14.73;;;24.20;99.90;;;;;;5086913;28;20191;-73
2023/06/18 08:14:57;;;;;;;14.93;13.30;;;24.20;99.90;;;;;;5092537;28;20230;-73
2023/06/18 08:17:47;;;;;;;14.15;12.75;;;24.20;99.90;;;;;;5084604;28;20207;-73
2023/06/18 08:20:38;;;;;;;14.43;13.02;;;24.20;99.90;;;;;;5062628;28;20571;-73
2023/06/18 08:23:27;;;;;;;12.80;11.70;;;24.20;99.90;;;;;;5078027;28;20195;-74
2023/06/18 08:26:16;;;;;;;13.27;12.07;;;23.90;99.90;;;;;;5078299;28;20279;-73
2023/06/18 08:29:05;;;;;;;12.15;11.05;;;23.60;99.90;;;;;;5058812;28;20187;-71
2023/06/18 08:31:54;;;;;;;12.75;11.63;;;23.80;99.90;;;;;;5065501;28;20285;-72
2023/06/18 08:34:45;;;;;;;14.13;12.68;;;23.70;99.90;;;;;;5080689;28;20643;-72
2023/06/18 08:37:34;;;;;;;15.50;13.90;;;23.80;99.90;;;;;;5071752;28;20950;-73
2023/06/18 08:40:25;;;;;;;13.32;12.02;;;24.00;99.90;;;;;;5067563;28;20199;-71
2023/06/18 08:43:14;;;;;;;12.80;11.60;;;23.70;99.90;;;;;;5082758;28;20192;-73
2023/06/18 08:46:10;;;;;;;12.98;11.73;;;23.80;99.90;;;;;;5076085;28;20268;-72
2023/06/18 08:49:01;;;;;;;14.15;12.85;;;23.40;99.90;;;;;;5069417;28;20885;-72
2023/06/18 08:51:55;;;;;;;13.18;11.88;;;23.40;99.90;;;;;;5077326;28;20204;-72
2023/06/18 08:54:47;;;;;;;14.48;13.07;;;23.40;99.90;;;;;;5076968;28;20195;-72
2023/06/18 08:57:43;;;;;;;14.27;12.85;;;23.30;99.90;;;;;;5086935;28;20202;-72
2023/06/18 09:00:32;;;;;;;14.18;12.73;;;23.00;99.90;;;;;;5081442;28;20901;-72
2023/06/18 09:03:21;;;;;;;13.52;12.23;;;22.90;99.90;;;;;;5073679;28;20788;-72
2023/06/18 09:06:12;;;;;;;13.40;11.95;;;22.90;99.90;;;;;;5067605;28;20242;-72
2023/06/18 09:09:02;;;;;;;20.55;13.48;;;22.80;99.90;;;;;;5080711;28;20226;-72
2023/06/18 09:11:51;;;;;;;15.40;13.77;;;22.50;99.90;;;;;;5100319;28;20195;-73
2023/06/18 09:14:40;;;;;;;28.17;17.23;;;22.30;99.90;;;;;;5080855;28;20187;-71
2023/06/18 09:17:29;;;;;;;19.70;14.65;;;22.00;99.90;;;;;;5081778;28;20554;-72
2023/06/18 09:20:20;;;;;;;24.42;14.00;;;21.50;99.90;;;;;;5072013;28;20277;-72
2023/06/18 09:23:10;;;;;;;19.90;14.77;;;20.50;99.90;;;;;;5075832;28;20214;-72
2023/06/18 09:26:01;;;;;;;21.77;15.55;;;19.60;99.90;;;;;;5079425;28;20265;-73
2023/06/18 09:28:51;;;;;;;21.33;14.65;;;19.30;99.90;;;;;;5081540;28;20213;-75
2023/06/18 09:31:44;;;;;;;23.02;15.60;;;19.30;99.90;;;;;;5081792;28;20207;-73
2023/06/18 09:34:33;;;;;;;22.20;15.55;;;19.20;99.90;;;;;;5073202;28;20230;-71
2023/06/18 09:37:22;;;;;;;18.08;15.07;;;19.00;99.90;;;;;;5086668;28;20200;-71
2023/06/18 09:40:16;;;;;;;26.67;17.88;;;18.80;99.90;;;;;;5081074;28;20197;-72
2023/06/18 09:43:06;;;;;;;17.65;14.88;;;18.80;99.90;;;;;;5065416;28;20227;-72
2023/06/18 09:45:55;;;;;;;22.50;15.10;;;18.60;99.90;;;;;;5091024;28;20208;-71
2023/06/18 09:48:46;;;;;;;24.38;17.83;;;18.50;99.90;;;;;;5080894;28;20192;-72
2023/06/18 09:51:41;;;;;;;30.30;21.50;;;18.40;99.90;;;;;;5065296;28;20195;-72
2023/06/18 09:54:40;;;;;;;28.17;21.77;;;18.50;99.90;;;;;;5066434;28;20211;-72
2023/06/18 09:57:31;;;;;;;30.80;23.77;;;18.50;99.90;;;;;;5078794;28;20625;-72
2023/06/18 10:00:22;;;;;;;25.90;20.10;;;18.60;99.90;;;;;;5060428;28;20200;-72
2023/06/18 10:03:11;;;;;;;22.65;20.35;;;18.30;99.90;;;;;;5082081;28;20198;-73
2023/06/18 10:06:12;;;;;;;29.17;23.67;;;18.10;99.90;;;;;;5087249;28;20216;-73
2023/06/18 10:09:01;;;;;;;28.80;24.77;;;18.50;99.90;;;;;;5075406;28;20281;-72
2023/06/18 10:11:52;;;;;;;28.05;22.00;;;18.60;99.90;;;;;;5072954;28;20690;-72
2023/06/18 10:14:42;;;;;;;28.58;23.42;;;18.50;99.90;;;;;;5083393;28;20228;-72
2023/06/18 10:17:36;;;;;;;28.85;24.75;;;18.50;99.90;;;;;;5062901;28;20558;-72
2023/06/18 10:20:27;;;;;;;27.42;24.50;;;18.70;99.90;;;;;;5080228;28;20195;-73
2023/06/18 10:23:18;;;;;;;28.15;25.10;;;18.80;99.90;;;;;;5071583;28;20207;-72
2023/06/18 10:26:07;;;;;;;28.55;25.55;;;18.80;99.90;;;;;;5079267;28;20875;-73
2023/06/18 10:28:58;;;;;;;25.35;22.63;;;18.80;99.90;;;;;;5079516;28;20241;-73
2023/06/18 10:31:47;;;;;;;23.17;20.85;;;18.70;99.90;;;;;;5064926;28;20280;-72
2023/06/18 10:34:39;;;;;;;22.90;20.45;;;18.50;99.90;;;;;;5082553;28;20199;-72
2023/06/18 10:37:30;;;;;;;25.25;21.88;;;18.50;99.90;;;;;;5084762;28;20204;-72
2023/06/18 10:40:20;;;;;;;24.77;22.15;;;18.80;99.90;;;;;;5069859;28;20649;-72
2023/06/18 10:43:10;;;;;;;25.67;22.95;;;18.80;99.90;;;;;;5071059;28;20219;-72
2023/06/18 10:46:09;;;;;;;24.10;21.73;;;18.90;99.90;;;;;;5085503;28;20693;-72
2023/06/18 10:49:16;;;;;;;25.70;23.25;;;18.90;99.90;;;;;;5070331;28;20191;-73
2023/06/18 10:52:25;;;;;;;22.60;20.20;;;19.00;99.90;;;;;;5072140;28;20203;-73
2023/06/18 10:55:28;;;;;;;21.60;19.42;;;18.90;99.90;;;;;;5076743;28;20198;-72
2023/06/18 10:58:32;;;;;;;22.55;20.25;;;18.90;99.90;;;;;;5089562;28;20198;-72
2023/06/18 11:01:26;;;;;;;22.50;20.30;;;19.00;99.90;;;;;;5087217;28;20204;-73
2023/06/18 11:04:18;;;;;;;21.33;19.08;;;19.10;99.90;;;;;;5085932;28;20276;-73
2023/06/18 11:07:15;;;;;;;23.25;20.83;;;19.00;99.90;;;;;;5066123;28;20728;-72
2023/06/18 11:10:07;;;;;;;23.35;21.05;;;19.10;99.90;;;;;;5061565;28;20943;-73
2023/06/18 11:12:56;;;;;;;23.67;21.20;;;19.10;99.90;;;;;;5070493;28;20188;-73
2023/06/18 11:15:59;;;;;;;23.88;20.63;;;19.00;99.90;;;;;;5074393;28;20227;-72
2023/06/18 11:18:48;;;;;;;24.45;21.88;;;19.20;99.90;;;;;;5068770;28;20194;-73
2023/06/18 11:21:42;;;;;;;23.52;21.10;;;19.40;99.90;;;;;;5079678;28;20191;-72
2023/06/18 11:24:31;;;;;;;21.00;18.90;;;19.60;99.90;;;;;;5062154;28;20316;-73
2023/06/18 11:27:25;;;;;;;22.05;19.80;;;19.60;99.90;;;;;;5069478;28;20743;-73
2023/06/18 11:30:15;;;;;;;21.42;19.13;;;19.60;99.90;;;;;;5085083;28;20195;-71
2023/06/18 11:33:04;;;;;;;16.30;14.60;;;19.50;99.90;;;;;;5075107;28;20235;-72
2023/06/18 11:35:54;;;;;;;16.10;14.60;;;19.40;99.90;;;;;;5068397;28;20225;-72
2023/06/18 11:38:45;;;;;;;15.18;13.77;;;19.40;99.90;;;;;;5060919;28;20273;-72
2023/06/18 11:41:34;;;;;;;15.20;12.93;;;19.40;99.90;;;;;;5076913;28;20258;-72
2023/06/18 11:44:27;;;;;;;14.98;13.43;;;19.40;99.90;;;;;;5078230;28;20206;-73
2023/06/18 11:47:16;;;;;;;15.35;13.55;;;19.30;99.90;;;;;;5062561;28;20523;-72
2023/06/18 11:50:05;;;;;;;13.57;12.30;;;19.20;99.90;;;;;;5085970;28;20597;-72
2023/06/18 11:52:54;;;;;;;14.65;13.23;;;19.20;99.90;;;;;;5075695;28;20207;-73
2023/06/18 11:55:43;;;;;;;15.90;14.30;;;19.20;99.90;;;;;;5084617;28;20191;-73
2023/06/18 11:58:32;;;;;;;14.70;13.30;;;19.30;99.90;;;;;;5075764;28;20307;-73
2023/06/18 12:01:26;;;;;;;13.90;11.20;;;19.40;99.90;;;;;;5073205;28;20559;-73
2023/06/18 12:04:15;;;;;;;12.48;11.35;;;19.30;99.90;;;;;;5076718;28;20625;-73
2023/06/18 12:07:04;;;;;;;14.48;12.95;;;19.30;99.90;;;;;;5081753;28;20205;-73
2023/06/18 12:09:55;;;;;;;10.98;9.98;;;19.30;99.90;;;;;;5085995;28;20812;-75
2023/06/18 12:12:54;;;;;;;12.60;11.30;;;19.40;99.90;;;;;;5072283;28;20204;-72
2023/06/18 12:15:51;;;;;;;12.95;10.50;;;19.40;99.90;;;;;;5062115;28;20204;-74
2023/06/18 12:18:44;;;;;;;13.55;10.10;;;19.30;99.90;;;;;;5085089;28;20188;-72
2023/06/18 12:21:34;;;;;;;11.73;10.57;;;19.30;99.90;;;;;;5104591;27;20209;-74
2023/06/18 12:24:25;;;;;;;11.93;10.73;;;19.20;99.90;;;;;;5078726;28;20195;-74
2023/06/18 12:27:14;;;;;;;11.73;10.70;;;19.20;99.90;;;;;;5077071;28;20203;-73
2023/06/18 12:30:06;;;;;;;12.30;11.00;;;19.20;99.90;;;;;;5082502;28;20192;-76
2023/06/18 12:33:03;;;;;;;11.35;10.25;;;19.20;99.90;;;;;;5101702;28;20268;-77
2023/06/18 12:35:56;;;;;;;13.98;11.18;;;19.30;99.90;;;;;;5088761;28;20202;-76
2023/06/18 12:38:47;;;;;;;11.13;10.13;;;19.10;99.90;;;;;;5074333;28;20313;-76
2023/06/18 12:41:36;;;;;;;11.95;9.70;;;19.00;99.90;;;;;;5086632;28;20303;-76
2023/06/18 12:44:27;;;;;;;11.73;10.40;;;18.90;99.90;;;;;;5072936;28;20191;-77
2023/06/18 12:47:18;;;;;;;10.23;9.32;;;18.80;99.90;;;;;;5068537;28;20307;-77
2023/06/18 12:50:08;;;;;;;10.10;9.05;;;18.80;99.90;;;;;;5063656;28;20194;-77
2023/06/18 12:52:58;;;;;;;9.45;8.63;;;18.70;99.90;;;;;;5072296;28;20192;-77
2023/06/18 12:55:48;;;;;;;11.15;10.05;;;18.80;99.90;;;;;;5072728;28;20691;-77
2023/06/18 12:58:37;;;;;;;12.05;10.77;;;18.80;99.90;;;;;;5087314;28;20290;-77
2023/06/18 13:01:25;;;;;;;11.40;10.40;;;18.90;99.90;;;;;;5094190;28;20228;-78
2023/06/18 13:04:16;;;;;;;11.85;10.75;;;18.80;99.90;;;;;;5078724;28;20191;-76
2023/06/18 13:07:05;;;;;;;11.00;10.00;;;18.90;99.90;;;;;;5081174;28;20914;-78
2023/06/18 13:09:55;;;;;;;12.38;10.10;;;18.90;99.90;;;;;;5090470;28;20200;-73
2023/06/18 13:12:44;;;;;;;11.95;10.75;;;18.90;99.90;;;;;;5084808;28;20206;-74
2023/06/18 13:15:33;;;;;;;12.88;10.85;;;18.90;99.90;;;;;;5085939;28;20192;-73
2023/06/18 13:18:22;;;;;;;12.82;11.63;;;18.90;99.90;;;;;;5084862;28;20274;-72
2023/06/18 13:21:12;;;;;;;12.88;11.65;;;19.00;99.90;;;;;;5049974;28;20286;-72
2023/06/18 13:24:01;;;;;;;12.88;10.88;;;19.10;99.90;;;;;;5077574;28;20233;-77
2023/06/18 13:26:52;;;;;;;10.73;9.73;;;19.10;99.90;;;;;;5073512;28;22226;-72
2023/06/18 13:29:43;;;;;;;10.98;9.98;;;19.20;99.90;;;;;;5072169;28;20192;-75
2023/06/18 13:32:32;;;;;;;10.23;8.82;;;19.20;99.90;;;;;;5071800;28;20235;-73
2023/06/18 13:35:20;;;;;;;10.95;9.77;;;19.20;99.90;;;;;;5061318;28;20235;-72
2023/06/18 13:38:14;;;;;;;11.02;10.02;;;19.30;99.90;;;;;;5059671;28;20227;-71
2023/06/18 13:41:03;;;;;;;13.02;11.73;;;19.40;99.90;;;;;;5043440;28;20201;-72
2023/06/18 13:43:54;;;;;;;11.30;10.20;;;19.50;99.90;;;;;;5053361;28;20565;-73
2023/06/18 13:46:42;;;;;;;10.18;9.10;;;19.60;99.90;;;;;;5061580;28;20709;-73
2023/06/18 13:49:32;;;;;;;10.95;9.60;;;19.70;99.90;;;;;;5061865;28;20189;-72
2023/06/18 13:52:21;;;;;;;9.68;8.77;;;19.70;99.90;;;;;;5039544;28;21089;-73
2023/06/18 13:55:10;;;;;;;8.70;7.90;;;19.70;99.90;;;;;;5060835;28;20193;-72
2023/06/18 13:57:59;;;;;;;10.10;9.10;;;19.70;99.90;;;;;;5045740;28;20460;-73
2023/06/18 14:00:49;;;;;;;12.40;9.48;;;19.80;99.90;;;;;;5063157;28;20722;-73
2023/06/18 14:03:39;;;;;;;9.68;8.70;;;19.80;99.90;;;;;;5060709;28;20376;-73
2023/06/18 14:06:28;;;;;;;10.13;9.20;;;19.90;99.90;;;;;;5054794;28;20200;-73
2023/06/18 14:09:17;;;;;;;10.10;9.13;;;20.00;99.90;;;;;;5066022;28;20196;-72
2023/06/18 14:12:11;;;;;;;10.18;9.23;;;20.20;99.90;;;;;;5057051;28;20745;-72
2023/06/18 14:14:59;;;;;;;8.70;7.80;;;20.20;99.90;;;;;;5056462;28;20338;-72
2023/06/18 14:17:50;;;;;;;10.95;9.30;;;20.30;99.90;;;;;;5053532;28;20648;-73
2023/06/18 14:20:39;;;;;;;9.93;8.70;;;20.40;99.90;;;;;;5055310;28;20192;-73
2023/06/18 14:23:28;;;;;;;10.20;8.85;;;20.40;99.90;;;;;;5047913;28;20191;-75
2023/06/18 14:26:17;;;;;;;8.07;7.38;;;20.50;99.90;;;;;;5051232;28;20261;-73